Tiempo atmosférico en la estación meteorológica de Llorac, Tarragona (660 m.)



Fecha
DESCASC
Temp. máxima en grados centígrados (hora)
DESCASC
Temp. mínima en grados centígrados (hora)
DESCASC
Temp. media en grados centígrados
DESCASC
Racha de viento máxima en m/sg (hora)
DESCASC
Velocidad máxima media en intervalos de 10 minutos(hora)
DESCASC
Precipitaciones diarias en mm
DESCASC
Precipitaciones de 00:00 a 06:00 en mm
DESCASC
Precipitaciones de 06:00 a 12:00 en mm
DESCASC
Precipitaciones de 12:00 a 18:00 en mm
DESCASC
Precipitaciones de 18:00 a 24:00 en mm
DESCASC
04-03-2021 12.3 (14:00) 2.4 (05:30) 7.4 5.28 (10:40) 3.33 (06:10) 0 0 0 0 0
03-03-2021 15.3 (14:50) 3.2 (07:40) 9.3 6.11 (17:10) 3.33 (17:40) 0 0 0 0 0
02-03-2021 11 (15:50) 5.4 (23:30) 8.2 8.61 (13:40) 5.83 (05:50) 0 0 0 0 0
01-03-2021 11.4 (13:50) 6.2 (07:40) 8.8 10.28 (00:10) 5.83 (00:10) 0 0 0 0 0
28-02-2021 11.9 (16:10) 1.2 (00:00) 6.5 8.89 (23:59) 5 (11:20) 0 0 0 0 0
27-02-2021 8.9 (15:30) 0.9 (00:00) 4.9 7.5 (14:50) 5.28 (14:50) 0.2 0.2 0 0 0
26-02-2021 11.8 (14:40) -0.7 (-00:0) 5.6 5.56 (15:00) 3.89 (15:00) 0 0 0 0 0
25-02-2021 13.1 (16:30) 4 (00:00) 8.6 7.5 (00:30) 4.72 (00:10) 0 0 0 0 0
24-02-2021 15 (16:00) 4.6 (00:00) 9.8 9.44 (23:20) 5.56 (11:50) 0 0 0 0 0
23-02-2021 14.8 (14:30) 6.1 (00:00) 10.5 6.11 (11:00) 3.61 (11:00) 0.4 0.2 0.2 0 0
22-02-2021 10.7 (05:50) 6.2 (00:00) 8.4 13.61 (02:10) 7.78 (01:40) 17.6 0.2 3.2 6.2 8
21-02-2021 11.8 (15:00) 2.6 (00:00) 7.2 19.17 (11:30) 11.11 (15:10) 0 0 0 0 0
20-02-2021 15.2 (14:20) -0.5 (-00:0) 7.3 10.56 (17:10) 7.22 (15:10) 0 0 0 0 0
19-02-2021 17.9 (15:50) -1.1 (-00:0) 8.4 6.39 (14:50) 4.17 (14:50) 0 0 0 0 0
18-02-2021 16.8 (15:50) -0.6 (-00:0) 8.1 6.67 (15:00) 4.44 (11:00) 0 0 0 0 0
17-02-2021 15.8 (14:30) 1.1 (00:00) 8.5 5.28 (14:20) 3.89 (15:10) 0 0 0 0 0
16-02-2021 14.4 (16:10) 1.2 (00:00) 7.8 6.39 (16:10) 5 (16:00) 0 0 0 0 0
15-02-2021 7.1 (15:30) 3.7 (00:00) 5.4 7.22 (01:20) 3.61 (04:10) 0 0 0 0 0
14-02-2021 6.1 (06:10) 1.7 (00:00) 3.9 7.22 (13:30) 4.17 (14:50) 1 0 0.2 0.6 0.2
13-02-2021 11.8 (15:30) 1.9 (00:00) 6.9 9.44 (09:10) 6.67 (15:10) 0 0 0 0 0
12-02-2021 14.3 (12:00) 1.4 (00:00) 7.9 15.28 (15:30) 10.83 (12:10) 8.6 0 0 7.4 1.2
11-02-2021 12.5 (16:50) 3.1 (00:00) 7.8 11.39 (17:00) 7.78 (15:30) 0 0 0 0 0
10-02-2021 9.3 (17:10) 2.4 (00:00) 5.9 13.61 (16:30) 9.72 (16:30) 4.4 0.2 4.2 0 0
09-02-2021 9.5 (13:10) 1.3 (00:00) 5.4 8.89 (23:50) 5.28 (21:40) 1.4 0 0 0.4 1
08-02-2021 7 (16:50) 4 (00:00) 5.5 11.39 (14:20) 7.22 (15:50) 3.8 0 1.2 2.6 0
07-02-2021 8.1 (14:40) 2.3 (00:00) 5.2 11.39 (10:40) 8.33 (11:20) 0 0 0 0 0
06-02-2021 13.2 (13:10) 6.5 (00:00) 9.8 10.28 (20:20) 7.22 (20:20) 0 0 0 0 0
05-02-2021 14.5 (14:00) 4.7 (00:00) 9.6 11.11 (13:20) 6.94 (13:20) 0 0 0 0 0
04-02-2021 16.5 (12:30) 1.4 (00:00) 8.9 10 (14:30) 6.94 (14:30) 0 0 0 0 0
03-02-2021 13.5 (14:20) 0.9 (00:00) 7.2 11.67 (14:10) 8.61 (13:50) 0 0 0 0 0

Gráficas

Temp. máximas Temp. mínimas Temp. medias Precipitaciones Rachas de viento máximas Velocidades máximas media en intervalos de 10 minutos

Datos horarios

Fecha y hora oficial Temperatura (ºC) Velocidad del viento (km/h) Dirección del viento Racha (km/h) Dirección de racha Precipitación (mm) Presión (hPa) Tendencia (hPa) Humedad (%)
2021-03-04 23:00:00 6.4 5 Este 11 Este 0 -- -- 100
2021-03-04 22:00:00 5.5 5 Sudeste 10 Este 0 -- -- 97
2021-03-04 21:00:00 6.4 2 Sudeste 10 Este 0 -- -- 94
2021-03-04 20:00:00 7.8 6 Este 12 Este 0 -- -- 91
2021-03-04 19:00:00 8.7 5 Sudeste 12 Sur 0 -- -- 88
2021-03-04 18:00:00 10.2 5 Sur 13 Sur 0 -- -- 74
2021-03-04 17:00:00 11 7 Sur 13 Sudoeste 0 -- -- 71
2021-03-04 16:00:00 11.3 8 Sur 14 Sur 0 -- -- 70
2021-03-04 15:00:00 11.8 5 Noroeste 14 Noroeste 0 -- -- 67
2021-03-04 14:00:00 12.3 3 Noroeste 10 Sudeste 0 -- -- 64
2021-03-04 13:00:00 12.1 3 Nordeste 9 Sur 0 -- -- 61
2021-03-04 12:00:00 10.6 7 Sur 18 Sur 0 -- -- 69
2021-03-04 11:00:00 9.9 10 Sur 19 Sur 0 -- -- 68
2021-03-04 10:00:00 8.8 6 Sudeste 11 Este 0 -- -- 92
2021-03-04 09:00:00 4.3 8 Sudeste 12 Sudeste 0 -- -- 100
2021-03-04 08:00:00 3.1 10 Sudeste 13 Sudeste 0 -- -- 100
2021-03-04 07:00:00 4.5 10 Este 16 Este 0 -- -- 100
2021-03-04 06:00:00 2.7 7 Sudeste 12 Sudeste 0 -- -- 100
2021-03-04 05:00:00 2.7 7 Sudeste 11 Sudeste 0 -- -- 99
2021-03-04 04:00:00 3.7 3 Sudeste 11 Sudeste 0 -- -- 98
2021-03-04 03:00:00 4.2 7 Sudeste 12 Sudeste 0 -- -- 97
2021-03-04 02:00:00 5.8 7 Sudeste 15 Este 0 -- -- 93
2021-03-04 01:00:00 7.5 9 Este 14 Este 0 -- -- 88
2021-03-04 00:00:00 7.2 6 Sudeste 11 Sudeste 0 -- -- 92
2021-03-03 23:00:00 7.4 6 Sudeste 9 Este 0 -- -- 95
2021-03-03 22:00:00 7.8 5 Este 13 Sudeste 0 -- -- 96
2021-03-03 21:00:00 8.4 5 Este 10 Sudeste 0 -- -- 93
2021-03-03 20:00:00 8.7 4 Sudeste 15 Sur 0 -- -- 89
2021-03-03 19:00:00 9.9 9 Sur 18 Sur 0 -- -- 87
2021-03-03 18:00:00 10.8 12 Sur 22 Sur 0 -- -- 87
2021-03-03 17:00:00 12 10 Sur 18 Sur 0 -- -- 77
2021-03-03 16:00:00 13.4 10 Sudoeste 15 Sur 0 -- -- 73
2021-03-03 15:00:00 14.7 9 Sur 13 Sudeste 0 -- -- 66
2021-03-03 14:00:00 14.5 4 Sur 11 Sudeste 0 -- -- 57
2021-03-03 13:00:00 12.6 3 Sudeste 13 Sudeste 0 -- -- 69
2021-03-03 12:00:00 10.8 6 Sudeste 10 Sudeste 0 -- -- 78
2021-03-03 11:00:00 9.9 4 Sur 8 Sudeste 0 -- -- 87
2021-03-03 10:00:00 7.7 3 Sudeste 5 Sudeste 0 -- -- 100
2021-03-03 09:00:00 5.1 3 Este 6 Sudeste 0 -- -- 100
2021-03-03 08:00:00 3.2 3 Sudeste 6 Sudeste 0 -- -- 100
2021-03-03 07:00:00 3.5 3 Sudeste 6 Sudeste 0 -- -- 100
2021-03-03 06:00:00 4 5 Sudeste 6 Sudeste 0 -- -- 100
2021-03-03 05:00:00 4.2 4 Sudeste 6 Sudeste 0 -- -- 100
2021-03-03 04:00:00 4.6 4 Sudeste 8 Sudeste 0 -- -- 100
2021-03-03 03:00:00 5.2 5 Sudeste 9 Sudeste 0 -- -- 99
2021-03-03 02:00:00 5.8 0 Calma 5 Sudeste 0 -- -- 99
2021-03-03 01:00:00 5.8 4 Sudeste 7 Sudeste 0 -- -- 99
2021-03-03 00:00:00 5.4 3 Este 8 Sudeste 0 -- -- 99
2021-03-02 23:00:00 6.2 0 Calma 4 Este 0 -- -- 97
2021-03-02 22:00:00 6.2 0 Calma 8 Este 0 -- -- 96
2021-03-02 21:00:00 6.7 5 Sudeste 9 Sudeste 0 -- -- 95
2021-03-02 20:00:00 7.2 3 Este 6 Sudeste 0 -- -- 92
2021-03-02 19:00:00 8.4 4 Sudeste 15 Sudeste 0 -- -- 88
2021-03-02 18:00:00 9.7 9 Sudeste 22 Este 0 -- -- 82
2021-03-02 17:00:00 10.4 14 Sudeste 30 Sudeste 0 -- -- 79
2021-03-02 16:00:00 10.9 17 Sudeste 28 Sudeste 0 -- -- 79
2021-03-02 15:00:00 10.8 16 Sudeste 31 Sudeste 0 -- -- 78
2021-03-02 14:00:00 10.5 17 Este 31 Sudeste 0 -- -- 78
2021-03-02 13:00:00 9.8 17 Sudeste 31 Sudeste 0 -- -- 76
2021-03-02 12:00:00 9.4 9 Este 22 Sudeste 0 -- -- 75
2021-03-02 11:00:00 9.1 10 Sudeste 18 Sudeste 0 -- -- 77
2021-03-02 10:00:00 8.5 8 Sudeste 15 Sudeste 0 -- -- 79
2021-03-02 09:00:00 8.2 8 Sudeste 15 Sudeste 0 -- -- 80
2021-03-02 08:00:00 7.2 13 Sudeste 21 Sudeste 0 -- -- 83
2021-03-02 07:00:00 6.9 15 Sudeste 24 Sudeste 0 -- -- 87
2021-03-02 06:00:00 7.1 18 Sudeste 29 Sudeste 0 -- -- 88
2021-03-02 05:00:00 6.8 15 Sudeste 21 Sudeste 0 -- -- 90
2021-03-02 04:00:00 7.1 10 Sudeste 19 Sudeste 0 -- -- 90
2021-03-02 03:00:00 7.4 10 Sudeste 19 Este 0 -- -- 89
2021-03-02 02:00:00 7.3 10 Sudeste 18 Sudeste 0 -- -- 89
2021-03-02 01:00:00 7.4 8 Sudeste 22 Este 0 -- -- 89
2021-03-02 00:00:00 7.4 11 Sudeste 22 Sudeste 0 -- -- 89
2021-03-01 23:00:00 7.5 15 Sudeste 24 Este 0 -- -- 89
2021-03-01 22:00:00 7.6 15 Sudeste 28 Sudeste 0 -- -- 88
2021-03-01 21:00:00 8 15 Sudeste 25 Sudeste 0 -- -- 86
2021-03-01 20:00:00 7.6 12 Sudeste 19 Sudeste 0 -- -- 87
2021-03-01 19:00:00 8.2 12 Sudeste 23 Sudeste 0 -- -- 84
2021-03-01 18:00:00 9.4 13 Sudeste 27 Sudeste 0 -- -- 78
2021-03-01 17:00:00 10.1 19 Sudeste 31 Sudeste 0 -- -- 70
2021-03-01 16:00:00 10.7 19 Sudeste 31 Sudeste 0 -- -- 68
2021-03-01 15:00:00 10.8 17 Sudeste 28 Este 0 -- -- 69
2021-03-01 14:00:00 10.9 17 Sudeste 28 Sudeste 0 -- -- 67
2021-03-01 13:00:00 10.1 14 Este 26 Sudeste 0 -- -- 70
2021-03-01 12:00:00 9.7 14 Sudeste 26 Sudeste 0 -- -- 72
2021-03-01 11:00:00 8.7 16 Sudeste 24 Sudeste 0 -- -- 77
2021-03-01 10:00:00 8 10 Este 19 Este 0 -- -- 79
2021-03-01 09:00:00 6.7 8 Sudeste 14 Sudeste 0 -- -- 88
2021-03-01 08:00:00 6.2 7 Sudeste 21 Sudeste 0 -- -- 90
2021-03-01 07:00:00 6.4 11 Sudeste 20 Sudeste 0 -- -- 91
2021-03-01 06:00:00 6.5 14 Sudeste 26 Este 0 -- -- 92
2021-03-01 05:00:00 6.7 15 Sudeste 24 Sudeste 0 -- -- 92
2021-03-01 04:00:00 6.9 19 Sudeste 28 Sudeste 0 -- -- 92
2021-03-01 03:00:00 6.9 15 Sudeste 26 Sudeste 0 -- -- 91
2021-03-01 02:00:00 6.9 18 Sudeste 29 Este 0 -- -- 90
2021-03-01 01:00:00 6.9 18 Sudeste 37 Sudeste 0 -- -- 91
2021-03-01 00:00:00 7 18 Sudeste 32 Sudeste 0 -- -- 90
2021-02-28 23:00:00 7.3 15 Sudeste 24 Sudeste 0 -- -- 90
2021-02-28 22:00:00 7.6 13 Sudeste 23 Sudeste 0 -- -- 91
2021-02-28 21:00:00 6.9 10 Sudeste 15 Sudeste 0 -- -- 93
2021-02-28 20:00:00 6 4 Este 8 Nordeste 0 -- -- 91
2021-02-28 19:00:00 7.6 4 Sudeste 15 Sudeste 0 -- -- 83
2021-02-28 18:00:00 10.1 13 Sudeste 22 Sudeste 0 -- -- 71
2021-02-28 17:00:00 10.7 14 Sudeste 24 Sudeste 0 -- -- 67
2021-02-28 16:00:00 11.4 10 Sudeste 23 Sudeste 0 -- -- 65
2021-02-28 15:00:00 10.4 12 Sudeste 24 Sudeste 0 -- -- 70
2021-02-28 14:00:00 10.6 14 Sudeste 25 Sudeste 0 -- -- 74
2021-02-28 13:00:00 10.9 15 Sudeste 23 Sudeste 0 -- -- 71
2021-02-28 12:00:00 10.2 12 Sudeste 29 Sudeste 0 -- -- 76
2021-02-28 11:00:00 9.1 12 Sudeste 21 Sudeste 0 -- -- 83
2021-02-28 10:00:00 7.9 10 Sudeste 18 Sudeste 0 -- -- 91
2021-02-28 09:00:00 7.3 10 Sudeste 15 Sudeste 0 -- -- 92
2021-02-28 08:00:00 6.2 7 Sudeste 14 Este 0 -- -- 97
2021-02-28 07:00:00 6.9 10 Este 14 Sudeste 0 -- -- 92
2021-02-28 06:00:00 6.5 6 Sudeste 16 Sudeste 0 -- -- 94
2021-02-28 05:00:00 4.6 7 Sudeste 12 Sudeste 0 -- -- 100
2021-02-28 04:00:00 1.8 10 Sudeste 13 Sudeste 0 -- -- 100
2021-02-28 03:00:00 1.6 5 Este 10 Sudeste 0 -- -- 100
2021-02-28 02:00:00 2.2 4 Este 9 Sudeste 0 -- -- 99
2021-02-28 01:00:00 3.8 6 Sudeste 7 Sudeste 0 -- -- 98
2021-02-28 00:00:00 6.6 4 Sudeste 10 Sudeste 0 -- -- 94
2021-02-27 23:00:00 7.5 6 Sudeste 11 Sudeste 0 -- -- 94
2021-02-27 22:00:00 6.9 5 Sudeste 9 Sudeste 0 -- -- 97
2021-02-27 21:00:00 6.1 3 Sudeste 8 Sudeste 0 -- -- 97
2021-02-27 20:00:00 7.1 0 Calma 6 Este 0 -- -- 97
2021-02-27 19:00:00 7.2 3 Este 8 Este 0 -- -- 95
2021-02-27 18:00:00 8.5 3 Noroeste 10 Noroeste 0 -- -- 90
2021-02-27 17:00:00 8.7 8 Noroeste 22 Noroeste 0 -- -- 89
2021-02-27 16:00:00 8.8 15 Noroeste 25 Oeste 0 -- -- 92
2021-02-27 15:00:00 8.6 17 Noroeste 27 Oeste 0 -- -- 100
2021-02-27 14:00:00 7.3 15 Noroeste 24 Noroeste 0 -- -- 100
2021-02-27 13:00:00 7.3 17 Noroeste 26 Noroeste 0 -- -- 100
2021-02-27 12:00:00 7.2 17 Noroeste 25 Noroeste 0 -- -- 100
2021-02-27 11:00:00 7 15 Noroeste 22 Oeste 0 -- -- 100
2021-02-27 10:00:00 6.8 15 Noroeste 23 Noroeste 0 -- -- 100
2021-02-27 09:00:00 6.6 16 Noroeste 22 Oeste 0 -- -- 100
2021-02-27 08:00:00 6.5 12 Noroeste 19 Noroeste 0 -- -- 100
2021-02-27 07:00:00 6.6 10 Noroeste 16 Noroeste 0 -- -- 100
2021-02-27 06:00:00 6.7 8 Noroeste 15 Noroeste 0 -- -- 100
2021-02-27 05:00:00 6.6 12 Noroeste 19 Oeste 0 -- -- 100
2021-02-27 04:00:00 5.5 3 Norte 6 Sudeste 0.2 -- -- 100
2021-02-27 03:00:00 3.9 2 Sudeste 7 Sudeste 0 -- -- 100
2021-02-27 02:00:00 2.6 3 Sudeste 8 Sudeste 0 -- -- 100
2021-02-27 01:00:00 1 7 Sudeste 8 Sudeste 0 -- -- 100
2021-02-27 00:00:00 1.2 0 Calma 8 Sudeste 0 -- -- 100
2021-02-26 23:00:00 2.2 3 Sudeste 9 Sudeste 0 -- -- 100
2021-02-26 22:00:00 3.9 2 Este 5 Norte 0 -- -- 100
2021-02-26 21:00:00 4.2 0 Calma 7 Sudeste 0 -- -- 100
2021-02-26 20:00:00 4.5 4 Sudeste 7 Sudeste 0 -- -- 98
2021-02-26 19:00:00 6.7 4 Nordeste 7 Noroeste 0 -- -- 93
2021-02-26 18:00:00 9 7 Noroeste 12 Oeste 0 -- -- 90
2021-02-26 17:00:00 10.4 10 Noroeste 15 Oeste 0 -- -- 84
2021-02-26 16:00:00 10.9 13 Oeste 19 Oeste 0 -- -- 83
2021-02-26 15:00:00 11.8 14 Oeste 20 Oeste 0 -- -- 82
2021-02-26 14:00:00 10.8 10 Noroeste 13 Oeste 0 -- -- 86
2021-02-26 13:00:00 9.5 9 Oeste 12 Noroeste 0 -- -- 100
2021-02-26 12:00:00 8.1 5 Oeste 9 Noroeste 0 -- -- 100
2021-02-26 11:00:00 7.3 6 Oeste 15 Noroeste 0 -- -- 100
2021-02-26 10:00:00 6.3 12 Oeste 17 Oeste 0 -- -- 100
2021-02-26 09:00:00 2.8 5 Sudeste 7 Sudeste 0 -- -- 100
2021-02-26 08:00:00 -0.7 7 Sudeste 9 Sudeste 0 -- -- 100
2021-02-26 07:00:00 -0.7 4 Sudeste 8 Sudeste 0 -- -- 100
2021-02-26 06:00:00 -0.5 7 Sudeste 9 Sudeste 0 -- -- 100
2021-02-26 05:00:00 -0.1 4 Sudeste 8 Sudeste 0 -- -- 100
2021-02-26 04:00:00 0.9 7 Sudeste 12 Sudeste 0 -- -- 100
2021-02-26 03:00:00 2 11 Sudeste 13 Sudeste 0 -- -- 100
2021-02-26 02:00:00 3 11 Sudeste 14 Sudeste 0 -- -- 100
2021-02-26 01:00:00 4.7 10 Sudeste 17 Sudeste 0 -- -- 100
2021-02-26 00:00:00 6 6 Sudeste 12 Sudeste 0 -- -- 100
2021-02-25 23:00:00 5.2 11 Sudeste 14 Sudeste 0 -- -- 100
2021-02-25 22:00:00 4.1 12 Sudeste 15 Este 0 -- -- 99
2021-02-25 21:00:00 4.2 9 Sudeste 11 Este 0 -- -- 97
2021-02-25 20:00:00 6 10 Sudeste 14 Sudeste 0 -- -- 94
2021-02-25 19:00:00 9.2 10 Sudeste 14 Sudeste 0 -- -- 89
2021-02-25 18:00:00 10.9 8 Sur 12 Sur 0 -- -- 82
2021-02-25 17:00:00 12.3 5 Sur 14 Sur 0 -- -- 75
2021-02-25 16:00:00 12.7 8 Sudoeste 18 Sudoeste 0 -- -- 74
2021-02-25 15:00:00 12.6 8 Sur 18 Sur 0 -- -- 71
2021-02-25 14:00:00 12.3 8 Sudoeste 24 Sur 0 -- -- 74
2021-02-25 13:00:00 11.3 8 Sudoeste 19 Sur 0 -- -- 75
2021-02-25 12:00:00 10.6 10 Sur 19 Sudoeste 0 -- -- 76
2021-02-25 11:00:00 9.6 6 Sudoeste 16 Sur 0 -- -- 80
2021-02-25 10:00:00 8.7 8 Sur 15 Sur 0 -- -- 81
2021-02-25 09:00:00 8.1 2 Este 6 Oeste 0 -- -- 88
2021-02-25 08:00:00 7.5 0 Calma 6 Este 0 -- -- 90
2021-02-25 07:00:00 7.6 4 Sudeste 10 Sudeste 0 -- -- 90
2021-02-25 06:00:00 7.5 4 Este 9 Este 0 -- -- 91
2021-02-25 05:00:00 7.7 9 Sudeste 18 Este 0 -- -- 89
2021-02-25 04:00:00 7.5 7 Sudeste 17 Sudeste 0 -- -- 92
2021-02-25 03:00:00 7.4 11 Sudeste 23 Sudeste 0 -- -- 93
2021-02-25 02:00:00 7.5 13 Sudeste 25 Sudeste 0 -- -- 93
2021-02-25 01:00:00 7.3 17 Sudeste 27 Sudeste 0 -- -- 93
2021-02-25 00:00:00 6.8 15 Este 34 Sudeste 0 -- -- 94
2021-02-24 23:00:00 6.6 16 Sudeste 31 Sudeste 0 -- -- 94
2021-02-24 22:00:00 4.8 5 Este 13 Sudeste 0 -- -- 92
2021-02-24 21:00:00 7 9 Este 16 Sudeste 0 -- -- 91
2021-02-24 20:00:00 7.3 10 Este 14 Este 0 -- -- 88
2021-02-24 19:00:00 7.9 7 Sudeste 18 Sudeste 0 -- -- 79
2021-02-24 18:00:00 12.3 13 Sudeste 22 Sudeste 0 -- -- 64
2021-02-24 17:00:00 14.2 10 Sur 22 Sur 0 -- -- 57
2021-02-24 16:00:00 15 9 Sudeste 25 Sudeste 0 -- -- 61
2021-02-24 15:00:00 14.8 13 Sudeste 28 Sudeste 0 -- -- 61
2021-02-24 14:00:00 14.2 17 Sudeste 27 Sudeste 0 -- -- 66
2021-02-24 13:00:00 13.3 16 Sudeste 28 Sudeste 0 -- -- 74
2021-02-24 12:00:00 10.4 17 Sudeste 28 Sudeste 0 -- -- 90
2021-02-24 11:00:00 9 18 Sudeste 25 Sudeste 0 -- -- 93
2021-02-24 10:00:00 7.9 12 Sudeste 20 Sudeste 0 -- -- 100
2021-02-24 09:00:00 6.8 8 Sudeste 14 Sudeste 0 -- -- 100
2021-02-24 08:00:00 6.5 7 Sudeste 13 Sudeste 0 -- -- 100
2021-02-24 07:00:00 6.9 6 Sudeste 18 Sudeste 0 -- -- 100
2021-02-24 06:00:00 7.3 14 Sudeste 22 Sudeste 0 -- -- 99
2021-02-24 05:00:00 7.9 15 Sudeste 22 Sudeste 0 -- -- 99
2021-02-24 04:00:00 8.3 13 Sudeste 23 Sudeste 0 -- -- 100
2021-02-24 03:00:00 8.6 16 Sudeste 22 Sudeste 0 -- -- 100
2021-02-24 02:00:00 8.8 11 Sudeste 24 Sudeste 0 -- -- 100
2021-02-24 01:00:00 8.9 14 Sudeste 22 Sudeste 0 -- -- 100
2021-02-24 00:00:00 8.8 9 Sudeste 16 Este 0 -- -- 100
2021-02-23 23:00:00 7.3 9 Sudeste 14 Sudeste 0 -- -- 100
2021-02-23 22:00:00 8.1 8 Sudeste 12 Este 0 -- -- 100
2021-02-23 21:00:00 6.4 7 Sudeste 10 Sudeste 0 -- -- 99
2021-02-23 20:00:00 7 6 Sudeste 9 Sudeste 0 -- -- 95
2021-02-23 19:00:00 9.2 5 Sudeste 7 Sudeste 0 -- -- 92
2021-02-23 18:00:00 13 6 Sudeste 14 Sudeste 0 -- -- 78
2021-02-23 17:00:00 13.8 8 Sudeste 15 Este 0 -- -- 75
2021-02-23 16:00:00 13.6 3 Oeste 8 Oeste 0 -- -- 78
2021-02-23 15:00:00 13.7 5 Nordeste 16 Sudeste 0 -- -- 72
2021-02-23 14:00:00 13.8 10 Este 17 Sudeste 0 -- -- 70
2021-02-23 13:00:00 12.5 9 Sudeste 19 Este 0 -- -- 74
2021-02-23 12:00:00 12 9 Sudeste 15 Sudeste 0 -- -- 80
2021-02-23 11:00:00 10.8 13 Sudeste 22 Sudeste 0 -- -- 89
2021-02-23 10:00:00 7.5 6 Noroeste 12 Noroeste 0 -- -- 100
2021-02-23 09:00:00 8.8 5 Sur 19 Sudeste 0 -- -- 96
2021-02-23 08:00:00 8.4 6 Sudeste 18 Sudeste 0 -- -- 100
2021-02-23 07:00:00 8.4 11 Sudeste 18 Sudeste 0.2 -- -- 100
2021-02-23 06:00:00 8.2 9 Sudeste 13 Sudeste 0 -- -- 100
2021-02-23 05:00:00 6.9 3 Sudeste 6 Sudeste 0 -- -- 100
2021-02-23 04:00:00 6.6 2 Noroeste 6 Sudeste 0 -- -- 100
2021-02-23 03:00:00 6.4 4 Sur 8 Sudeste 0.2 -- -- 100
2021-02-23 02:00:00 6.1 0 Calma 6 Noroeste 0 -- -- 100
2021-02-23 01:00:00 6.2 4 Noroeste 9 Oeste 0 -- -- 100
2021-02-23 00:00:00 6.2 6 Noroeste 11 Noroeste 0 -- -- 100
2021-02-22 23:00:00 6.2 8 Noroeste 13 Noroeste 0.4 -- -- 100
2021-02-22 22:00:00 6.5 9 Noroeste 14 Noroeste 1.8 -- -- 100
2021-02-22 21:00:00 6.8 8 Noroeste 10 Noroeste 1.8 -- -- 100
2021-02-22 20:00:00 6.8 3 Noroeste 6 Noroeste 1.4 -- -- 100
2021-02-22 19:00:00 6.7 4 Noroeste 12 Noroeste 2.6 -- -- 100
2021-02-22 18:00:00 6.8 9 Oeste 12 Oeste 2 -- -- 100
2021-02-22 17:00:00 7.1 13 Oeste 19 Noroeste 0 -- -- 98
2021-02-22 16:00:00 9.7 12 Sudeste 21 Sudeste 0 -- -- 93
2021-02-22 15:00:00 9.4 10 Sudeste 22 Sudeste 0 -- -- 94
2021-02-22 14:00:00 9.3 13 Sudeste 33 Este 1 -- -- 95
2021-02-22 13:00:00 9.2 20 Sudeste 37 Sudeste 3.2 -- -- 96
2021-02-22 12:00:00 9.3 20 Sudeste 37 Sudeste 0.2 -- -- 95
2021-02-22 11:00:00 9.8 23 Sudeste 41 Sudeste 0.6 -- -- 93
2021-02-22 10:00:00 9.2 24 Sudeste 39 Sudeste 0.6 -- -- 95
2021-02-22 09:00:00 9.1 27 Sudeste 38 Sudeste 1.2 -- -- 94
2021-02-22 08:00:00 9.6 18 Sudeste 32 Este 0.6 -- -- 93
2021-02-22 07:00:00 10.1 19 Sudeste 33 Sudeste 0 -- -- 91
2021-02-22 06:00:00 10.7 22 Sudeste 47 Sudeste 0 -- -- 84
2021-02-22 05:00:00 10.4 22 Sudeste 45 Sudeste 0 -- -- 94
2021-02-22 04:00:00 10.3 23 Sudeste 46 Este 0 -- -- 95
2021-02-22 03:00:00 10.3 23 Sudeste 49 Sudeste 0 -- -- 94
2021-02-22 02:00:00 10.3 28 Sudeste 46 Sudeste 0.2 -- -- 93
2021-02-22 01:00:00 10.1 23 Sudeste 42 Este 0 -- -- 93
2021-02-22 00:00:00 10.2 19 Sudeste 40 Sudeste 0 -- -- 89
2021-02-21 23:00:00 10.1 19 Sudeste 33 Sudeste 0 -- -- 85
2021-02-21 22:00:00 9.9 17 Sudeste 36 Sudeste 0 -- -- 83
2021-02-21 21:00:00 9.7 19 Sudeste 37 Sudeste 0 -- -- 82
2021-02-21 20:00:00 9.8 25 Sudeste 47 Sudeste 0 -- -- 81
2021-02-21 19:00:00 9.9 26 Sudeste 51 Sudeste 0 -- -- 82
2021-02-21 18:00:00 9.9 29 Sudeste 55 Sudeste 0 -- -- 82
2021-02-21 17:00:00 10.4 32 Sudeste 51 Este 0 -- -- 80
2021-02-21 16:00:00 10.9 34 Sudeste 60 Sudeste 0 -- -- 79
2021-02-21 15:00:00 11.8 32 Sudeste 51 Sudeste 0 -- -- 76
2021-02-21 14:00:00 11.1 32 Sudeste 55 Este 0 -- -- 78
2021-02-21 13:00:00 10.8 29 Sudeste 51 Sudeste 0 -- -- 79
2021-02-21 12:00:00 9.1 31 Sudeste 69 Sudeste 0 -- -- 85
2021-02-21 11:00:00 7.9 33 Sudeste 57 Sudeste 0 -- -- 89
2021-02-21 10:00:00 7.5 26 Sudeste 44 Sudeste 0 -- -- 91
2021-02-21 09:00:00 7.1 26 Sudeste 46 Sudeste 0 -- -- 92
2021-02-21 08:00:00 6.6 20 Sudeste 42 Sudeste 0 -- -- 94
2021-02-21 07:00:00 6.4 17 Sudeste 33 Sudeste 0 -- -- 94
2021-02-21 06:00:00 6.4 11 Sudeste 22 Sudeste 0 -- -- 96
2021-02-21 05:00:00 6 9 Sudeste 19 Este 0 -- -- 97
2021-02-21 04:00:00 6.1 4 Este 19 Este 0 -- -- 96
2021-02-21 03:00:00 5.5 11 Sudeste 18 Sudeste 0 -- -- 100
2021-02-21 02:00:00 3 0 Calma 9 Nordeste 0 -- -- 98
2021-02-21 01:00:00 2.8 5 Este 17 Sudeste 0 -- -- 93
2021-02-21 00:00:00 4.4 13 Sudeste 24 Sudeste 0 -- -- 96
2021-02-20 23:00:00 4.5 8 Sudeste 16 Sudeste 0 -- -- 92
2021-02-20 22:00:00 5.2 13 Sudeste 22 Sudeste 0 -- -- 82
2021-02-20 21:00:00 6.9 18 Sudeste 25 Sudeste 0 -- -- 75
2021-02-20 20:00:00 6.8 13 Sudeste 22 Sudeste 0 -- -- 85
2021-02-20 19:00:00 8.1 18 Sudeste 28 Sudeste 0 -- -- 81
2021-02-20 18:00:00 9.7 23 Sudeste 38 Sudeste 0 -- -- 75
2021-02-20 17:00:00 11.6 26 Sudeste 36 Sudeste 0 -- -- 72
2021-02-20 16:00:00 12 22 Sudeste 37 Sudeste 0 -- -- 71
2021-02-20 15:00:00 13.7 23 Sudeste 34 Sudeste 0 -- -- 64
2021-02-20 14:00:00 14.3 19 Sudeste 30 Sudeste 0 -- -- 60
2021-02-20 13:00:00 14 18 Sudeste 29 Sudeste 0 -- -- 62
2021-02-20 12:00:00 13.6 13 Sudeste 30 Sudeste 0 -- -- 62
2021-02-20 11:00:00 11.3 15 Sudeste 26 Sudeste 0 -- -- 74
2021-02-20 10:00:00 9.1 14 Sudeste 23 Sudeste 0 -- -- 82
2021-02-20 09:00:00 5.7 17 Sudeste 23 Sudeste 0 -- -- 90
2021-02-20 08:00:00 2.5 17 Sudeste 23 Sudeste 0 -- -- 96
2021-02-20 07:00:00 0.8 10 Sudeste 19 Sudeste 0 -- -- 95
2021-02-20 06:00:00 -0.4 12 Sudeste 14 Sudeste 0 -- -- 95
2021-02-20 05:00:00 0 7 Sudeste 15 Sudeste 0 -- -- 93
2021-02-20 04:00:00 0 6 Sudeste 8 Sudeste 0 -- -- 91
2021-02-20 03:00:00 0.9 7 Sudeste 11 Sudeste 0 -- -- 89
2021-02-20 02:00:00 1.5 5 Sudeste 9 Sudeste 0 -- -- 86
2021-02-20 01:00:00 3.2 6 Sudeste 15 Nordeste 0 -- -- 80
2021-02-20 00:00:00 5.9 9 Este 15 Sudeste 0 -- -- 69
2021-02-19 23:00:00 6.5 9 Sudeste 15 Sudoeste 0 -- -- 68
2021-02-19 22:00:00 7.8 11 Sudeste 18 Sur 0 -- -- 63
2021-02-19 21:00:00 7.4 9 Sudeste 18 Sur 0 -- -- 65
2021-02-19 20:00:00 6.9 10 Sudeste 16 Sudeste 0 -- -- 66
2021-02-19 19:00:00 11.9 4 Sur 20 Sur 0 -- -- 47
2021-02-19 18:00:00 13.7 6 Sur 18 Sur 0 -- -- 45
2021-02-19 17:00:00 15.9 8 Sur 18 Sur 0 -- -- 46
2021-02-19 16:00:00 17.8 7 Oeste 20 Oeste 0 -- -- 40
2021-02-19 15:00:00 16.9 14 Noroeste 23 Oeste 0 -- -- 39
2021-02-19 14:00:00 16.3 13 Noroeste 19 Oeste 0 -- -- 38
2021-02-19 13:00:00 16 12 Noroeste 21 Oeste 0 -- -- 42
2021-02-19 12:00:00 15.2 12 Noroeste 19 Noroeste 0 -- -- 44
2021-02-19 11:00:00 13.5 9 Noroeste 14 Noroeste 0 -- -- 52
2021-02-19 10:00:00 8.5 3 Sudeste 7 Sudeste 0 -- -- 95
2021-02-19 09:00:00 1.7 5 Sudeste 8 Sudeste 0 -- -- 100
2021-02-19 08:00:00 -0.8 7 Sudeste 9 Sudeste 0 -- -- 100
2021-02-19 07:00:00 -0.8 7 Sudeste 10 Sudeste 0 -- -- 100
2021-02-19 06:00:00 -0.9 7 Sudeste 9 Sudeste 0 -- -- 100
2021-02-19 05:00:00 -1 5 Sudeste 10 Sudeste 0 -- -- 100
2021-02-19 04:00:00 -0.8 6 Sudeste 10 Sudeste 0 -- -- 100
2021-02-19 03:00:00 -0.4 6 Sudeste 10 Sudeste 0 -- -- 99
2021-02-19 02:00:00 0.1 6 Sudeste 8 Sudeste 0 -- -- 99
2021-02-19 01:00:00 0.8 6 Sudeste 8 Sudeste 0 -- -- 98
2021-02-19 00:00:00 1.6 6 Sudeste 8 Sudeste 0 -- -- 98
2021-02-18 23:00:00 2.7 4 Sudeste 8 Sudeste 0 -- -- 98
2021-02-18 22:00:00 3.7 5 Este 10 Sudeste 0 -- -- 97
2021-02-18 21:00:00 4.9 5 Sudeste 11 Sudeste 0 -- -- 94
2021-02-18 20:00:00 6.8 8 Sudeste 15 Sudeste 0 -- -- 91
2021-02-18 19:00:00 10 10 Este 16 Sudeste 0 -- -- 84
2021-02-18 18:00:00 12.4 11 Sudeste 17 Sudeste 0 -- -- 74
2021-02-18 17:00:00 14.5 12 Sudeste 19 Sudeste 0 -- -- 67
2021-02-18 16:00:00 16.1 9 Sudeste 21 Sur 0 -- -- 62
2021-02-18 15:00:00 15.6 16 Sudeste 24 Sudeste 0 -- -- 62
2021-02-18 14:00:00 15.8 10 Sur 23 Sudeste 0 -- -- 55
2021-02-18 13:00:00 16.1 13 Sudeste 19 Sudeste 0 -- -- 47
2021-02-18 12:00:00 14.1 6 Sur 19 Sudeste 0 -- -- 53
2021-02-18 11:00:00 12.5 16 Sudeste 22 Sudeste 0 -- -- 67
2021-02-18 10:00:00 10.9 5 Sudeste 8 Sudeste 0 -- -- 81
2021-02-18 09:00:00 2.8 5 Sudeste 10 Sudeste 0 -- -- 100
2021-02-18 08:00:00 -0.5 6 Sudeste 9 Sudeste 0 -- -- 100
2021-02-18 07:00:00 -0.5 5 Sudeste 9 Sudeste 0 -- -- 100
2021-02-18 06:00:00 -0.2 6 Sudeste 12 Sudeste 0 -- -- 100
2021-02-18 05:00:00 0 7 Sudeste 9 Sudeste 0 -- -- 99
2021-02-18 04:00:00 1 5 Sudeste 10 Sudeste 0 -- -- 99
2021-02-18 03:00:00 2.1 6 Sudeste 11 Sudeste 0 -- -- 97
2021-02-18 02:00:00 2.8 5 Sudeste 12 Sudeste 0 -- -- 95
2021-02-18 01:00:00 4.2 8 Este 13 Sudeste 0 -- -- 94
2021-02-18 00:00:00 5.2 5 Sudeste 13 Sudeste 0 -- -- 91
2021-02-17 23:00:00 6.1 7 Sudeste 12 Sudeste 0 -- -- 93
2021-02-17 22:00:00 6.3 5 Sudeste 11 Sudeste 0 -- -- 97
2021-02-17 21:00:00 6.8 7 Sudeste 10 Sudeste 0 -- -- 95
2021-02-17 20:00:00 7.5 8 Sudeste 13 Sudeste 0 -- -- 93
2021-02-17 19:00:00 9.4 3 Sudeste 6 Oeste 0 -- -- 87
2021-02-17 18:00:00 12.7 2 Sudeste 12 Oeste 0 -- -- 76
2021-02-17 17:00:00 14.9 10 Noroeste 17 Noroeste 0 -- -- 67
2021-02-17 16:00:00 15.3 13 Noroeste 18 Oeste 0 -- -- 65
2021-02-17 15:00:00 15.6 13 Noroeste 19 Noroeste 0 -- -- 59
2021-02-17 14:00:00 15 12 Noroeste 17 Noroeste 0 -- -- 59
2021-02-17 13:00:00 15 9 Noroeste 18 Sudeste 0 -- -- 62
2021-02-17 12:00:00 14.5 7 Sudeste 13 Sur 0 -- -- 65
2021-02-17 11:00:00 12.2 6 Sur 14 Sur 0 -- -- 71
2021-02-17 10:00:00 9.1 2 Sudeste 5 Sudeste 0 -- -- 100
2021-02-17 09:00:00 5.6 6 Sudeste 8 Sudeste 0 -- -- 100
2021-02-17 08:00:00 4 5 Sudeste 9 Sudeste 0 -- -- 100
2021-02-17 07:00:00 3.9 4 Sudeste 7 Sudeste 0 -- -- 100
2021-02-17 06:00:00 3.9 5 Este 8 Sudeste 0 -- -- 100
2021-02-17 05:00:00 3.5 5 Sudeste 6 Sudeste 0 -- -- 100
2021-02-17 04:00:00 3.3 4 Sudeste 7 Sudeste 0 -- -- 100
2021-02-17 03:00:00 2.8 5 Sudeste 8 Sudeste 0 -- -- 100
2021-02-17 02:00:00 1.7 4 Sudeste 7 Sudeste 0 -- -- 100
2021-02-17 01:00:00 1.2 3 Sudeste 6 Sudeste 0 -- -- 100
2021-02-17 00:00:00 1.4 4 Sudeste 8 Sudeste 0 -- -- 100
2021-02-16 23:00:00 1.9 4 Sudeste 6 Sudeste 0 -- -- 99
2021-02-16 22:00:00 2.6 3 Este 5 Sudeste 0 -- -- 98
2021-02-16 21:00:00 3.5 3 Este 6 Sudeste 0 -- -- 97
2021-02-16 20:00:00 5.2 3 Sudeste 5 Sudeste 0 -- -- 95
2021-02-16 19:00:00 7.5 3 Sudeste 6 Sudeste 0 -- -- 90
2021-02-16 18:00:00 11.2 5 Oeste 21 Oeste 0 -- -- 79
2021-02-16 17:00:00 13.4 14 Oeste 23 Oeste 0 -- -- 71
2021-02-16 16:00:00 14.3 18 Noroeste 23 Oeste 0 -- -- 68
2021-02-16 15:00:00 14.1 14 Oeste 20 Oeste 0 -- -- 68
2021-02-16 14:00:00 12.5 13 Noroeste 19 Noroeste 0 -- -- 73
2021-02-16 13:00:00 12 7 Sudoeste 17 Oeste 0 -- -- 74
2021-02-16 12:00:00 9.1 8 Oeste 17 Oeste 0 -- -- 82
2021-02-16 11:00:00 8.3 7 Noroeste 17 Oeste 0 -- -- 85
2021-02-16 10:00:00 7.3 9 Oeste 13 Oeste 0 -- -- 91
2021-02-16 09:00:00 7.1 5 Sur 12 Sudoeste 0 -- -- 92
2021-02-16 08:00:00 7 2 Sur 13 Noroeste 0 -- -- 95
2021-02-16 07:00:00 6.9 5 Noroeste 9 Noroeste 0 -- -- 95
2021-02-16 06:00:00 7 4 Noroeste 11 Oeste 0 -- -- 93
2021-02-16 05:00:00 6.9 5 Oeste 11 Oeste 0 -- -- 93
2021-02-16 04:00:00 6.9 8 Sudoeste 15 Sudoeste 0 -- -- 94
2021-02-16 03:00:00 6.8 5 Sur 12 Oeste 0 -- -- 96
2021-02-16 02:00:00 6.7 6 Sur 19 Sudoeste 0 -- -- 98
2021-02-16 01:00:00 6.7 6 Sudoeste 13 Sudeste 0 -- -- 100
2021-02-16 00:00:00 6.5 6 Sur 12 Sur 0 -- -- 100
2021-02-15 23:00:00 6.2 3 Este 10 Sudeste 0 -- -- 100
2021-02-15 22:00:00 5.9 9 Sudeste 13 Sur 0 -- -- 100
2021-02-15 21:00:00 5.7 6 Sudeste 16 Sur 0 -- -- 100
2021-02-15 20:00:00 5.8 5 Sur 18 Sudeste 0 -- -- 100
2021-02-15 19:00:00 5.9 5 Sur 13 Sur 0 -- -- 99
2021-02-15 18:00:00 6 5 Sur 13 Oeste 0 -- -- 98
2021-02-15 17:00:00 6.6 6 Sudoeste 19 Sudoeste 0 -- -- 95
2021-02-15 16:00:00 6.8 8 Sudoeste 20 Sur 0 -- -- 94
2021-02-15 15:00:00 6.9 10 Sur 20 Sur 0 -- -- 94
2021-02-15 14:00:00 6.6 5 Sudoeste 21 Sur 0 -- -- 95
2021-02-15 13:00:00 6 9 Sur 19 Sur 0 -- -- 98
2021-02-15 12:00:00 5.3 12 Sur 22 Sur 0 -- -- 99
2021-02-15 11:00:00 5.1 9 Sur 21 Sudoeste 0 -- -- 99
2021-02-15 10:00:00 5 10 Sur 19 Sur 0 -- -- 99
2021-02-15 09:00:00 4.5 10 Sur 17 Sur 0 -- -- 100
2021-02-15 08:00:00 4.2 9 Sur 19 Sur 0 -- -- 100
2021-02-15 07:00:00 4 9 Sur 19 Sur 0 -- -- 100
2021-02-15 06:00:00 4 10 Sur 18 Sudeste 0 -- -- 99
2021-02-15 05:00:00 4 8 Sur 22 Sur 0 -- -- 98
2021-02-15 04:00:00 3.9 11 Sur 21 Sur 0 -- -- 97
2021-02-15 03:00:00 3.7 10 Sudeste 21 Sudeste 0 -- -- 97
2021-02-15 02:00:00 3.8 8 Sudeste 26 Sur 0 -- -- 97
2021-02-15 01:00:00 3.8 12 Sur 21 Sur 0 -- -- 98
2021-02-15 00:00:00 3.8 10 Sudeste 17 Sudeste 0 -- -- 98
2021-02-14 23:00:00 3.6 10 Sudeste 17 Sudeste 0 -- -- 97
2021-02-14 22:00:00 3.5 11 Sudeste 18 Sudeste 0 -- -- 97
2021-02-14 21:00:00 3.4 12 Sudeste 19 Sudeste 0 -- -- 98
2021-02-14 20:00:00 3.5 12 Sudeste 23 Sudeste 0.2 -- -- 98
2021-02-14 19:00:00 3.7 13 Sudeste 23 Sudeste 0 -- -- 99
2021-02-14 18:00:00 3.9 11 Sudeste 23 Este 0.2 -- -- 99
2021-02-14 17:00:00 4.1 14 Sudeste 23 Este 0 -- -- 97
2021-02-14 16:00:00 4.5 15 Sudeste 24 Sudeste 0 -- -- 98
2021-02-14 15:00:00 4.9 14 Sudeste 26 Sudeste 0 -- -- 97
2021-02-14 14:00:00 5.8 15 Sudeste 26 Este 0.2 -- -- 96
2021-02-14 13:00:00 5.9 13 Sudeste 21 Este 0.2 -- -- 97
2021-02-14 12:00:00 5.6 12 Sudeste 20 Sudeste 0.2 -- -- 99
2021-02-14 11:00:00 5.3 10 Sudeste 23 Este 0 -- -- 100
2021-02-14 10:00:00 5.1 11 Sudeste 20 Este 0 -- -- 100
2021-02-14 09:00:00 5 12 Sudeste 23 Sudeste 0 -- -- 100
2021-02-14 08:00:00 5.3 10 Sudeste 18 Sudeste 0 -- -- 100
2021-02-14 07:00:00 6.1 10 Sudeste 19 Sudeste 0 -- -- 100
2021-02-14 06:00:00 5.8 4 Sudeste 9 Este 0 -- -- 100
2021-02-14 05:00:00 2.5 8 Sudeste 10 Sudeste 0 -- -- 100
2021-02-14 04:00:00 2 5 Sudeste 10 Sudeste 0 -- -- 100
2021-02-14 03:00:00 3.3 3 Sudeste 8 Sudeste 0 -- -- 100
2021-02-14 02:00:00 4.2 3 Sudeste 6 Sudeste 0 -- -- 100
2021-02-14 01:00:00 3.9 3 Sudeste 10 Sudeste 0 -- -- 100
2021-02-14 00:00:00 3 8 Sudeste 13 Sudeste 0 -- -- 100
2021-02-13 23:00:00 2 9 Sudeste 12 Sudeste 0 -- -- 99
2021-02-13 22:00:00 2.8 3 Sudeste 9 Sudeste 0 -- -- 98
2021-02-13 21:00:00 4 5 Sudeste 9 Sudeste 0 -- -- 97
2021-02-13 20:00:00 5.6 4 Sudeste 10 Sudeste 0 -- -- 94
2021-02-13 19:00:00 7.8 2 Este 5 Oeste 0 -- -- 88
2021-02-13 18:00:00 10.2 7 Noroeste 19 Noroeste 0 -- -- 80
2021-02-13 17:00:00 10.5 13 Noroeste 31 Oeste 0 -- -- 77
2021-02-13 16:00:00 11 23 Oeste 33 Oeste 0 -- -- 74
2021-02-13 15:00:00 10.8 23 Noroeste 31 Oeste 0 -- -- 73
2021-02-13 14:00:00 10.9 22 Noroeste 29 Noroeste 0 -- -- 75
2021-02-13 13:00:00 9.9 14 Oeste 27 Noroeste 0 -- -- 82
2021-02-13 08:00:00 5.4 17 Noroeste 33 Noroeste 0 -- -- 98
2021-02-13 07:00:00 5.6 13 Noroeste 30 Noroeste 0 -- -- 99
2021-02-13 06:00:00 5.3 15 Noroeste 22 Oeste 0 -- -- 100
2021-02-13 05:00:00 3.1 5 Sudeste 10 Norte 0 -- -- 98
2021-02-13 04:00:00 5.1 3 Este 15 Noroeste 0 -- -- 95
2021-02-13 03:00:00 5.8 12 Noroeste 32 Noroeste 0 -- -- 97
2021-02-13 02:00:00 5.9 15 Noroeste 25 Noroeste 0 -- -- 97
2021-02-13 01:00:00 6.4 8 Noroeste 23 Noroeste 0 -- -- 96
2021-02-13 00:00:00 6.7 14 Noroeste 34 Noroeste 0 -- -- 94
2021-02-12 23:00:00 7.3 26 Noroeste 38 Noroeste 0 -- -- 93
2021-02-12 22:00:00 7.5 18 Noroeste 33 Noroeste 0 -- -- 95
2021-02-12 21:00:00 8 22 Noroeste 34 Noroeste 0 -- -- 96
2021-02-12 20:00:00 8.6 24 Noroeste 43 Oeste 0 -- -- 99
2021-02-12 19:00:00 8.4 19 Noroeste 39 Noroeste 1.2 -- -- 100
2021-02-12 18:00:00 8.3 27 Noroeste 48 Oeste 3 -- -- 100
2021-02-12 17:00:00 8.3 24 Noroeste 44 Noroeste 3.2 -- -- 100
2021-02-12 16:00:00 8.8 33 Noroeste 55 Oeste 0.2 -- -- 96
2021-02-12 15:00:00 9.1 30 Noroeste 43 Oeste 1 -- -- 96
2021-02-12 14:00:00 10.3 22 Noroeste 42 Noroeste 0 -- -- 89
2021-02-12 13:00:00 11.2 29 Noroeste 51 Oeste 0 -- -- 83
2021-02-12 12:00:00 14.3 29 Noroeste 44 Noroeste 0 -- -- 68
2021-02-12 11:00:00 12.2 4 Noroeste 7 Oeste 0 -- -- 87
2021-02-12 10:00:00 7.4 4 Sudeste 8 Sudeste 0 -- -- 100
2021-02-12 09:00:00 3.5 5 Sudeste 9 Sudeste 0 -- -- 100
2021-02-12 08:00:00 1.7 8 Sudeste 9 Sudeste 0 -- -- 100
2021-02-12 07:00:00 2 5 Sudeste 9 Sudeste 0 -- -- 100
2021-02-12 06:00:00 1.8 5 Sudeste 8 Sudeste 0 -- -- 100
2021-02-12 05:00:00 2 3 Este 10 Sudeste 0 -- -- 100
2021-02-12 04:00:00 2.2 4 Sudeste 10 Sudeste 0 -- -- 100
2021-02-12 03:00:00 1.8 6 Sudeste 8 Sudeste 0 -- -- 100
2021-02-12 02:00:00 2.6 5 Sudeste 9 Sudeste 0 -- -- 100
2021-02-12 01:00:00 2.9 5 Sudeste 7 Sudeste 0 -- -- 98
2021-02-12 00:00:00 3.7 4 Sudeste 6 Sudeste 0 -- -- 99
2021-02-11 23:00:00 3.7 6 Sudeste 9 Sudeste 0 -- -- 98
2021-02-11 22:00:00 3.3 6 Sudeste 7 Sudeste 0 -- -- 97
2021-02-11 21:00:00 4.6 5 Sudeste 6 Sudeste 0 -- -- 95
2021-02-11 20:00:00 6.2 3 Sudeste 4 Este 0 -- -- 91
2021-02-11 19:00:00 8.5 0 Calma 18 Noroeste 0 -- -- 83
2021-02-11 18:00:00 11.1 14 Noroeste 35 Noroeste 0 -- -- 73
2021-02-11 17:00:00 12.5 26 Noroeste 41 Oeste 0 -- -- 66
2021-02-11 16:00:00 11.5 26 Noroeste 40 Noroeste 0 -- -- 65
2021-02-11 15:00:00 11.6 25 Noroeste 36 Oeste 0 -- -- 58
2021-02-11 14:00:00 11 20 Noroeste 32 Oeste 0 -- -- 60
2021-02-11 13:00:00 9.9 20 Oeste 32 Noroeste 0 -- -- 64
2021-02-11 12:00:00 8.6 21 Oeste 28 Noroeste 0 -- -- 71
2021-02-11 11:00:00 7.6 18 Oeste 30 Oeste 0 -- -- 76
2021-02-11 10:00:00 6.3 22 Oeste 31 Noroeste 0 -- -- 79
2021-02-11 09:00:00 4.5 17 Noroeste 26 Noroeste 0 -- -- 86
2021-02-11 08:00:00 3.3 19 Noroeste 29 Noroeste 0 -- -- 89
2021-02-11 07:00:00 3.2 21 Noroeste 27 Noroeste 0 -- -- 90
2021-02-11 06:00:00 3.7 18 Noroeste 27 Oeste 0 -- -- 88
2021-02-11 05:00:00 3.3 15 Noroeste 24 Noroeste 0 -- -- 90
2021-02-11 04:00:00 3.6 16 Noroeste 29 Noroeste 0 -- -- 87
2021-02-11 03:00:00 4.4 18 Noroeste 28 Noroeste 0 -- -- 82
2021-02-11 02:00:00 5.4 21 Noroeste 38 Noroeste 0 -- -- 78
2021-02-11 01:00:00 3.2 6 Noroeste 16 Noroeste 0 -- -- 88
2021-02-11 00:00:00 4.9 11 Noroeste 23 Noroeste 0 -- -- 83
2021-02-10 23:00:00 4.5 8 Noroeste 21 Noroeste 0 -- -- 86
2021-02-10 22:00:00 4.8 6 Noroeste 24 Noroeste 0 -- -- 85
2021-02-10 21:00:00 5.8 15 Noroeste 35 Noroeste 0 -- -- 83
2021-02-10 20:00:00 6.7 25 Noroeste 36 Oeste 0 -- -- 80
2021-02-10 19:00:00 7.2 19 Noroeste 40 Noroeste 0 -- -- 79
2021-02-10 18:00:00 8.2 23 Noroeste 43 Oeste 0 -- -- 75
2021-02-10 17:00:00 9.2 28 Oeste 49 Noroeste 0 -- -- 71
2021-02-10 16:00:00 8.2 25 Noroeste 48 Noroeste 0 -- -- 81
2021-02-10 15:00:00 7.2 31 Noroeste 48 Oeste 0 -- -- 86
2021-02-10 14:00:00 5.8 32 Noroeste 48 Oeste 0 -- -- 91
2021-02-10 13:00:00 5.7 30 Noroeste 46 Noroeste 0 -- -- 94
2021-02-10 12:00:00 5.2 27 Noroeste 42 Oeste 0.8 -- -- 98
2021-02-10 11:00:00 5 24 Noroeste 37 Oeste 1.2 -- -- 99
2021-02-10 10:00:00 4.9 17 Noroeste 23 Noroeste 0 -- -- 100
2021-02-10 09:00:00 4.3 10 Noroeste 17 Oeste 2 -- -- 100
2021-02-10 08:00:00 2.9 0 Calma 4 Noroeste 0 -- -- 99
2021-02-10 07:00:00 2.7 0 Calma 4 Norte 0.2 -- -- 97
2021-02-10 06:00:00 4.1 5 Noroeste 17 Noroeste 0 -- -- 96
2021-02-10 05:00:00 4.7 11 Noroeste 17 Noroeste 0 -- -- 93
2021-02-10 04:00:00 4 2 Sudoeste 13 Noroeste 0.2 -- -- 94
2021-02-10 03:00:00 2.5 2 Sudeste 14 Noroeste 0 -- -- 93
2021-02-10 02:00:00 4.5 13 Noroeste 24 Oeste 0 -- -- 90
2021-02-10 01:00:00 5.2 13 Noroeste 29 Noroeste 0 -- -- 88
2021-02-10 00:00:00 5.7 18 Noroeste 32 Oeste 0 -- -- 86
2021-02-09 23:00:00 6.2 18 Noroeste 30 Noroeste 0 -- -- 86
2021-02-09 22:00:00 7.3 19 Oeste 31 Oeste 0 -- -- 86
2021-02-09 21:00:00 7.9 13 Oeste 27 Oeste 0 -- -- 86
2021-02-09 20:00:00 7.6 6 Sur 19 Sudeste 0.4 -- -- 95
2021-02-09 19:00:00 8.1 8 Sur 24 Sur 0.6 -- -- 91
2021-02-09 18:00:00 8 6 Sudeste 27 Sur 0 -- -- 85
2021-02-09 17:00:00 8.6 12 Sur 27 Sur 0 -- -- 78
2021-02-09 16:00:00 8.5 8 Sudeste 14 Sudeste 0 -- -- 80
2021-02-09 15:00:00 8.5 8 Noroeste 18 Noroeste 0.4 -- -- 77
2021-02-09 14:00:00 9.2 9 Sur 21 Oeste 0 -- -- 73
2021-02-09 13:00:00 9.4 7 Oeste 27 Oeste 0 -- -- 74
2021-02-09 12:00:00 9.3 12 Oeste 23 Oeste 0 -- -- 72
2021-02-09 11:00:00 8.3 12 Noroeste 22 Oeste 0 -- -- 78
2021-02-09 10:00:00 6.9 10 Noroeste 20 Noroeste 0 -- -- 86
2021-02-09 09:00:00 4.4 3 Noroeste 8 Norte 0 -- -- 99
2021-02-09 08:00:00 2.4 0 Calma 5 Sudeste 0 -- -- 100
2021-02-09 07:00:00 1.4 3 Nordeste 6 Este 0 -- -- 100
2021-02-09 06:00:00 2 0 Calma 12 Noroeste 0 -- -- 97
2021-02-09 05:00:00 2.4 3 Este 14 Noroeste 0 -- -- 95
2021-02-09 04:00:00 3.8 8 Noroeste 24 Noroeste 0 -- -- 93
2021-02-09 03:00:00 4.4 15 Noroeste 26 Noroeste 0 -- -- 92
2021-02-09 02:00:00 4.7 16 Noroeste 24 Noroeste 0 -- -- 91
2021-02-09 01:00:00 5.6 15 Noroeste 29 Noroeste 0 -- -- 86
2021-02-09 00:00:00 5.9 17 Noroeste 34 Noroeste 0 -- -- 86
2021-02-08 23:00:00 6.2 13 Noroeste 24 Noroeste 0 -- -- 86
2021-02-08 22:00:00 5.7 11 Noroeste 19 Noroeste 0 -- -- 94
2021-02-08 21:00:00 5.5 10 Noroeste 21 Noroeste 0 -- -- 92
2021-02-08 20:00:00 6.3 15 Noroeste 31 Noroeste 0 -- -- 88
2021-02-08 19:00:00 5.9 7 Noroeste 15 Noroeste 0 -- -- 95
2021-02-08 18:00:00 6.2 16 Noroeste 32 Oeste 0 -- -- 94
2021-02-08 17:00:00 6.8 21 Noroeste 36 Noroeste 0 -- -- 94
2021-02-08 16:00:00 6 23 Noroeste 36 Oeste 0 -- -- 95
2021-02-08 15:00:00 5.9 24 Noroeste 41 Oeste 0.4 -- -- 96
2021-02-08 14:00:00 6.3 23 Oeste 37 Oeste 0.6 -- -- 95
2021-02-08 13:00:00 5.8 10 Noroeste 19 Noroeste 1.6 -- -- 96
2021-02-08 12:00:00 6.2 12 Noroeste 18 Noroeste 1.2 -- -- 93
2021-02-08 11:00:00 6.7 8 Noroeste 13 Noroeste 0 -- -- 79
2021-02-08 10:00:00 6 4 Nordeste 13 Noroeste 0 -- -- 79
2021-02-08 09:00:00 4.8 9 Noroeste 18 Noroeste 0 -- -- 83
2021-02-08 08:00:00 4.8 14 Noroeste 22 Noroeste 0 -- -- 82
2021-02-08 07:00:00 4.9 14 Noroeste 24 Noroeste 0 -- -- 83
2021-02-08 06:00:00 4 17 Noroeste 33 Oeste 0 -- -- 81
2021-02-08 05:00:00 4 20 Noroeste 32 Noroeste 0 -- -- 80
2021-02-08 04:00:00 4.4 18 Noroeste 34 Noroeste 0 -- -- 78
2021-02-08 03:00:00 5.1 24 Noroeste 37 Noroeste 0 -- -- 74
2021-02-08 02:00:00 5.4 22 Noroeste 31 Noroeste 0 -- -- 73
2021-02-08 01:00:00 4.7 17 Noroeste 29 Noroeste 0 -- -- 74
2021-02-08 00:00:00 5.3 17 Noroeste 28 Oeste 0 -- -- 70
2021-02-07 23:00:00 5.5 13 Noroeste 29 Oeste 0 -- -- 65
2021-02-07 22:00:00 5.8 17 Noroeste 28 Noroeste 0 -- -- 66
2021-02-07 21:00:00 4.9 11 Noroeste 19 Noroeste 0 -- -- 75
2021-02-07 20:00:00 4.8 5 Noroeste 30 Noroeste 0 -- -- 77
2021-02-07 19:00:00 5.9 19 Noroeste 31 Oeste 0 -- -- 74
2021-02-07 18:00:00 7 21 Noroeste 35 Oeste 0 -- -- 66
2021-02-07 17:00:00 7.7 22 Oeste 36 Oeste 0 -- -- 63
2021-02-07 16:00:00 7.8 24 Noroeste 35 Noroeste 0 -- -- 63
2021-02-07 15:00:00 7.6 27 Noroeste 37 Oeste 0 -- -- 65
2021-02-07 14:00:00 6.5 23 Noroeste 37 Oeste 0 -- -- 72
2021-02-07 13:00:00 4.7 25 Noroeste 38 Oeste 0 -- -- 83
2021-02-07 12:00:00 4.1 28 Noroeste 39 Oeste 0 -- -- 81
2021-02-07 11:00:00 3.2 29 Noroeste 41 Oeste 0 -- -- 84
2021-02-07 10:00:00 2.4 25 Noroeste 34 Oeste 0 -- -- 87
2021-02-07 09:00:00 2.4 22 Noroeste 38 Noroeste 0 -- -- 87
2021-02-07 08:00:00 3.2 27 Noroeste 41 Noroeste 0 -- -- 86
2021-02-07 07:00:00 3.5 24 Noroeste 36 Noroeste 0 -- -- 86
2021-02-07 06:00:00 3.9 23 Noroeste 36 Oeste 0 -- -- 87
2021-02-07 05:00:00 4.2 17 Noroeste 33 Oeste 0 -- -- 88
2021-02-07 04:00:00 4.4 20 Noroeste 37 Noroeste 0 -- -- 90
2021-02-07 03:00:00 4.7 21 Noroeste 30 Oeste 0 -- -- 92
2021-02-07 02:00:00 5.3 19 Noroeste 33 Noroeste 0 -- -- 95
2021-02-07 01:00:00 5.7 25 Noroeste 35 Noroeste 0 -- -- 96
2021-02-07 00:00:00 6.5 24 Noroeste 33 Noroeste 0 -- -- 95
2021-02-06 23:00:00 7 24 Noroeste 33 Oeste 0 -- -- 94
2021-02-06 22:00:00 7.7 22 Noroeste 33 Noroeste 0 -- -- 94
2021-02-06 21:00:00 8 18 Noroeste 37 Oeste 0 -- -- 87
2021-02-06 20:00:00 10.7 10 Oeste 18 Oeste 0 -- -- 68
2021-02-06 19:00:00 10.6 6 Oeste 13 Sur 0 -- -- 72
2021-02-06 18:00:00 11.2 2 Sur 10 Oeste 0 -- -- 72
2021-02-06 17:00:00 11.9 4 Oeste 16 Oeste 0 -- -- 65
2021-02-06 16:00:00 12.5 14 Noroeste 25 Oeste 0 -- -- 63
2021-02-06 15:00:00 12.7 16 Noroeste 23 Noroeste 0 -- -- 64
2021-02-06 14:00:00 12.5 16 Noroeste 22 Oeste 0 -- -- 73
2021-02-06 13:00:00 12.6 8 Oeste 17 Noroeste 0 -- -- 75
2021-02-06 12:00:00 12.9 3 Sudeste 13 Oeste 0 -- -- 73
2021-02-06 11:00:00 10.3 10 Oeste 17 Noroeste 0 -- -- 80
2021-02-06 10:00:00 10.7 3 Sudoeste 9 Nordeste 0 -- -- 79
2021-02-06 09:00:00 9.1 4 Nordeste 10 Sudoeste 0 -- -- 87
2021-02-06 08:00:00 10 9 Sur 27 Sudeste 0 -- -- 80
2021-02-06 07:00:00 10.5 6 Oeste 26 Sudeste 0 -- -- 76
2021-02-06 06:00:00 11 11 Sudeste 27 Sudeste 0 -- -- 71
2021-02-06 05:00:00 11.7 14 Sudeste 23 Sudeste 0 -- -- 66
2021-02-06 04:00:00 11.6 12 Sudeste 30 Sudeste 0 -- -- 65
2021-02-06 03:00:00 11.9 17 Sudeste 28 Sudeste 0 -- -- 63
2021-02-06 02:00:00 11.7 15 Sudeste 24 Sudeste 0 -- -- 66
2021-02-06 01:00:00 11.1 17 Sudeste 32 Sudeste 0 -- -- 70
2021-02-06 00:00:00 11.5 19 Sudeste 30 Este 0 -- -- 62
2021-02-05 23:00:00 11.1 15 Sudeste 24 Sudeste 0 -- -- 66
2021-02-05 22:00:00 10.2 9 Sudeste 21 Sudeste 0 -- -- 71
2021-02-05 21:00:00 9.6 10 Sudeste 22 Sudeste 0 -- -- 79
2021-02-05 20:00:00 10 13 Sudeste 21 Sudeste 0 -- -- 79
2021-02-05 19:00:00 10.3 6 Sudeste 27 Sudeste 0 -- -- 78
2021-02-05 18:00:00 11.5 14 Sudeste 24 Sudeste 0 -- -- 74
2021-02-05 17:00:00 12.8 12 Sudeste 27 Sudeste 0 -- -- 69
2021-02-05 16:00:00 14.1 15 Sudeste 28 Sudeste 0 -- -- 64
2021-02-05 15:00:00 14.1 14 Sudeste 32 Sudeste 0 -- -- 64
2021-02-05 14:00:00 14.5 17 Sudeste 40 Sudeste 0 -- -- 61
2021-02-05 13:00:00 13.9 21 Sudeste 37 Sudeste 0 -- -- 64
2021-02-05 12:00:00 13.5 17 Sudeste 28 Sudeste 0 -- -- 66
2021-02-05 11:00:00 12.6 13 Sudeste 25 Sur 0 -- -- 71
2021-02-05 10:00:00 11.1 18 Sudeste 24 Sudeste 0 -- -- 74
2021-02-05 09:00:00 8 14 Sudeste 21 Sudeste 0 -- -- 86
2021-02-05 08:00:00 6.9 13 Sudeste 23 Sudeste 0 -- -- 95
2021-02-05 07:00:00 7.5 11 Sudeste 28 Sudeste 0 -- -- 89
2021-02-05 06:00:00 8.6 11 Sudeste 21 Sudeste 0 -- -- 79
2021-02-05 05:00:00 6.4 8 Sudeste 18 Sudeste 0 -- -- 88
2021-02-05 04:00:00 4.7 6 Sudeste 10 Sudeste 0 -- -- 95
2021-02-05 03:00:00 6.1 5 Sudeste 11 Este 0 -- -- 90
2021-02-05 02:00:00 7.7 6 Sudeste 18 Este 0 -- -- 86
2021-02-05 01:00:00 5.8 7 Sudeste 11 Sudeste 0 -- -- 98
2021-02-05 00:00:00 5.6 4 Sudeste 10 Sudeste 0 -- -- 98
2021-02-04 23:00:00 5.7 6 Sudeste 8 Sudeste 0 -- -- 97
2021-02-04 22:00:00 6.9 6 Este 14 Sudeste 0 -- -- 97
2021-02-04 21:00:00 8 8 Sudeste 13 Sudeste 0 -- -- 94
2021-02-04 20:00:00 8.9 9 Sudeste 15 Sudeste 0 -- -- 92
2021-02-04 19:00:00 10.4 5 Sudeste 20 Este 0 -- -- 84
2021-02-04 18:00:00 12.2 12 Sudeste 26 Sudeste 0 -- -- 78
2021-02-04 17:00:00 13.2 13 Sudeste 22 Sudeste 0 -- -- 76
2021-02-04 16:00:00 14.8 9 Sur 24 Sudeste 0 -- -- 73
2021-02-04 15:00:00 16.4 9 Sur 36 Sudeste 0 -- -- 58
2021-02-04 14:00:00 16.2 15 Sudeste 22 Este 0 -- -- 59
2021-02-04 13:00:00 16.2 10 Sudeste 20 Sudeste 0 -- -- 59
2021-02-04 12:00:00 14.8 9 Sudeste 14 Sudeste 0 -- -- 63
2021-02-04 11:00:00 13.7 14 Sudeste 22 Sudeste 0 -- -- 68
2021-02-04 10:00:00 7.5 4 Sudeste 12 Sudeste 0 -- -- 100
2021-02-04 09:00:00 2.5 8 Sudeste 10 Sudeste 0 -- -- 100
2021-02-04 08:00:00 1.5 5 Sudeste 12 Sudeste 0 -- -- 100
2021-02-04 07:00:00 1.8 7 Sudeste 11 Sudeste 0 -- -- 100
2021-02-04 06:00:00 2.4 9 Sudeste 12 Sudeste 0 -- -- 100
2021-02-04 05:00:00 2.6 7 Sudeste 15 Sudeste 0 -- -- 99
2021-02-04 04:00:00 2.7 10 Sudeste 14 Sudeste 0 -- -- 99
2021-02-04 03:00:00 3 8 Sudeste 11 Sudeste 0 -- -- 98
2021-02-04 02:00:00 3.7 5 Sudeste 9 Sudeste 0 -- -- 97
2021-02-04 01:00:00 4.6 6 Sudeste 8 Sudeste 0 -- -- 96
2021-02-04 00:00:00 5.6 4 Sudeste 7 Sudeste 0 -- -- 94
2021-02-03 23:00:00 5.9 4 Sudeste 7 Sudeste 0 -- -- 94
2021-02-03 22:00:00 6.1 5 Sudeste 8 Sudeste 0 -- -- 92
2021-02-03 21:00:00 6.7 3 Sudeste 8 Sudeste 0 -- -- 90
2021-02-03 20:00:00 7.5 4 Sudeste 6 Sudeste 0 -- -- 88
2021-02-03 19:00:00 9 3 Sudeste 12 Noroeste 0 -- -- 82
2021-02-03 18:00:00 11.6 7 Noroeste 25 Noroeste 0 -- -- 73
2021-02-03 17:00:00 12.6 17 Noroeste 33 Noroeste 0 -- -- 68
2021-02-03 16:00:00 13.1 23 Oeste 34 Noroeste 0 -- -- 65
2021-02-03 15:00:00 13.3 27 Noroeste 42 Oeste 0 -- -- 64
2021-02-03 14:00:00 13.2 30 Oeste 42 Noroeste 0 -- -- 63
2021-02-03 13:00:00 12.8 29 Oeste 40 Noroeste 0 -- -- 66
2021-02-03 12:00:00 12.2 28 Oeste 37 Oeste 0 -- -- 68
2021-02-03 11:00:00 11.2 26 Noroeste 37 Noroeste 0 -- -- 72
2021-02-03 10:00:00 9.3 26 Noroeste 33 Noroeste 0 -- -- 82
2021-02-03 09:00:00 6.2 10 Noroeste 17 Noroeste 0 -- -- 96
2021-02-03 08:00:00 3.6 6 Noroeste 9 Noroeste 0 -- -- 98
2021-02-03 07:00:00 4.3 7 Noroeste 9 Noroeste 0 -- -- 98
2021-02-03 06:00:00 5.2 6 Noroeste 15 Noroeste 0 -- -- 95
2021-02-03 05:00:00 5.6 10 Noroeste 15 Noroeste 0 -- -- 100
2021-02-03 04:00:00 3.4 6 Noroeste 11 Noroeste 0 -- -- 100
2021-02-03 03:00:00 1.8 4 Sudeste 9 Sudeste 0 -- -- 100
2021-02-03 02:00:00 1.1 0 Calma 6 Sudeste 0 -- -- 99
2021-02-03 01:00:00 1.5 5 Sudeste 8 Sudeste 0 -- -- 99
2021-02-03 00:00:00 2.1 5 Sudeste 9 Sudeste 0 -- -- 98